Time;durP1;ratioP1;P1;durP2;ratioP2;P2;SDS_P1;SDS_P2;PMS_P1;PMS_P2;Temp;Humidity;BMP_temperature;BMP_pressure;BME280_temperature;BME280_humidity;BME280_pressure;Samples;Min_cycle;Max_cycle;Signal;HPM_P1;HPM_P2
2023/08/19 00:00:06;;;;;;;5.70;3.75;;;;;;;18.26;100.00;95954.75;1022421;29;20035;-74
2023/08/19 00:00:38;;;;;;;3.85;3.47;;;;;;;18.31;100.00;95965.28;1021776;29;20353;-75
2023/08/19 00:01:09;;;;;;;9.43;4.10;;;;;;;18.21;100.00;95944.25;1019092;28;20032;-77
2023/08/19 00:01:39;;;;;;;6.10;4.20;;;;;;;18.30;100.00;95961.03;1026459;28;20249;-75
2023/08/19 00:02:10;;;;;;;4.55;3.88;;;;;;;18.23;100.00;95960.69;1026584;28;20034;-75
2023/08/19 00:02:43;;;;;;;4.45;4.00;;;;;;;18.31;100.00;95970.59;1026116;28;20154;-74
2023/08/19 00:03:14;;;;;;;6.35;3.90;;;;;;;18.26;100.00;95962.75;1025305;28;20031;-75
2023/08/19 00:03:44;;;;;;;6.90;3.90;;;;;;;18.30;100.00;95966.34;1030326;28;20073;-77
2023/08/19 00:04:15;;;;;;;6.15;3.85;;;;;;;18.29;100.00;95970.88;1030546;28;20034;-76
2023/08/19 00:04:45;;;;;;;4.22;3.70;;;;;;;18.26;100.00;95960.84;1026286;28;20015;-76
2023/08/19 00:05:16;;;;;;;4.65;3.85;;;;;;;18.30;100.00;95966.34;1026448;28;20023;-75
2023/08/19 00:05:46;;;;;;;4.38;3.58;;;;;;;18.29;100.00;95962.91;1023433;28;20047;-75
2023/08/19 00:06:34;;;;;;;5.15;3.83;;;;;;;18.25;100.00;95953.22;1023355;28;20693;-77
2023/08/19 00:07:04;;;;;;;6.35;4.20;;;;;;;18.28;100.00;95961.34;1030352;28;20077;-76
2023/08/19 00:07:35;;;;;;;4.93;3.97;;;;;;;18.27;100.00;95966.94;1031595;28;20476;-75
2023/08/19 00:08:06;;;;;;;8.10;4.07;;;;;;;18.28;100.00;95961.34;1024119;28;20018;-76
2023/08/19 00:08:36;;;;;;;4.03;3.60;;;;;;;18.19;100.00;95947.22;1022603;28;20504;-77
2023/08/19 00:09:08;;;;;;;4.95;4.50;;;;;;;18.23;100.00;95964.13;1018336;29;20020;-76
2023/08/19 00:09:39;;;;;;;4.85;4.35;;;;;;;17.80;100.00;95893.00;1019853;29;20026;-77
2023/08/19 00:10:09;;;;;;;6.93;3.95;;;;;;;18.24;100.00;95963.06;1018499;29;20036;-76
2023/08/19 00:10:40;;;;;;;7.95;4.28;;;;;;;18.26;100.00;95965.38;1023243;28;20045;-79
2023/08/19 00:11:11;;;;;;;6.68;4.35;;;;;;;18.24;100.00;95956.94;1021311;28;20087;-76
2023/08/19 00:11:41;;;;;;;5.28;4.10;;;;;;;18.20;100.00;95954.09;1018643;29;20027;-77
2023/08/19 00:12:12;;;;;;;5.05;4.00;;;;;;;18.26;100.00;95960.09;1022459;29;20061;-77
2023/08/19 00:12:42;;;;;;;7.78;4.30;;;;;;;18.27;100.00;95962.41;1026070;28;20452;-74
2023/08/19 00:13:13;;;;;;;6.88;4.38;;;;;;;18.27;100.00;95967.72;1026442;28;20023;-75
2023/08/19 00:13:43;;;;;;;6.85;4.15;;;;;;;18.22;100.00;95959.13;1025263;28;20043;-77
2023/08/19 00:14:14;;;;;;;6.00;4.10;;;;;;;18.19;100.00;95959.75;1030566;28;20033;-77
2023/08/19 00:14:45;;;;;;;6.05;3.90;;;;;;;18.24;100.00;95962.25;1029257;28;20026;-76
2023/08/19 00:15:15;;;;;;;6.13;4.22;;;;;;;18.24;100.00;95968.38;1026787;28;20028;-75
2023/08/19 00:15:46;;;;;;;4.43;3.78;;;;;;;18.26;100.00;95966.16;1030404;28;20591;-75
2023/08/19 00:16:17;;;;;;;4.93;3.80;;;;;;;18.28;100.00;95963.22;1030117;28;20033;-77
2023/08/19 00:16:48;;;;;;;4.22;3.83;;;;;;;18.27;100.00;95964.28;1026063;28;20045;-76
2023/08/19 00:17:19;;;;;;;6.05;4.38;;;;;;;18.27;100.00;95966.94;1030455;28;20069;-76
2023/08/19 00:17:49;;;;;;;5.60;3.80;;;;;;;18.27;100.00;95961.63;1026602;28;20778;-77
2023/08/19 00:18:20;;;;;;;5.45;4.30;;;;;;;18.26;100.00;95963.50;1026352;28;20030;-78
2023/08/19 00:18:50;;;;;;;5.60;4.15;;;;;;;18.24;100.00;95965.72;1026383;28;20400;-74
2023/08/19 00:19:21;;;;;;;5.50;4.10;;;;;;;18.27;100.00;95966.94;1026346;28;20043;-75
2023/08/19 00:19:51;;;;;;;5.63;4.25;;;;;;;18.26;100.00;95962.75;1030299;28;20033;-75
2023/08/19 00:20:23;;;;;;;7.50;4.50;;;;;;;18.25;100.00;95964.63;1029867;28;20077;-75
2023/08/19 00:20:55;;;;;;;6.57;4.03;;;;;;;18.25;100.00;95967.28;1026458;28;20694;-76
2023/08/19 00:21:25;;;;;;;9.68;4.45;;;;;;;18.22;100.00;95959.13;1026219;28;20026;-79
2023/08/19 00:21:55;;;;;;;7.05;4.20;;;;;;;18.13;100.00;95951.09;1026821;28;20050;-77
2023/08/19 00:22:26;;;;;;;9.73;4.28;;;;;;;18.21;100.00;95968.16;1026561;28;20038;-76
2023/08/19 00:22:56;;;;;;;7.35;4.00;;;;;;;18.16;100.00;95955.81;1026465;28;20034;-76
2023/08/19 00:23:27;;;;;;;5.45;4.40;;;;;;;18.12;100.00;95955.63;1026147;28;20026;-77
2023/08/19 00:23:57;;;;;;;4.70;3.92;;;;;;;18.14;100.00;95953.47;1022573;28;20027;-76
2023/08/19 00:24:28;;;;;;;7.25;4.03;;;;;;;18.16;100.00;95960.34;1026334;28;20485;-77
2023/08/19 00:24:58;;;;;;;4.90;4.25;;;;;;;18.18;100.00;95963.50;1029109;28;20563;-77
2023/08/19 00:25:29;;;;;;;5.63;4.43;;;;;;;18.16;100.00;95965.66;1024174;28;20019;-77
2023/08/19 00:25:59;;;;;;;5.40;4.28;;;;;;;18.11;100.00;95955.97;1026403;28;20027;-75
2023/08/19 00:26:30;;;;;;;7.55;4.38;;;;;;;18.15;100.00;95959.56;1026375;28;20033;-77
2023/08/19 00:27:01;;;;;;;7.40;4.40;;;;;;;18.14;100.00;95958.78;1022310;28;20176;-74
2023/08/19 00:27:32;;;;;;;6.40;4.35;;;;;;;18.07;100.00;95953.09;1026680;28;20015;-76
2023/08/19 00:28:04;;;;;;;5.93;4.35;;;;;;;18.11;100.00;95959.41;1030382;28;20033;-79
2023/08/19 00:28:34;;;;;;;5.88;4.38;;;;;;;18.13;100.00;95962.50;1033200;28;20455;-75
2023/08/19 00:29:05;;;;;;;8.23;4.15;;;;;;;18.11;100.00;95959.41;1030379;28;20033;-76
2023/08/19 00:29:35;;;;;;;5.95;4.13;;;;;;;18.08;100.00;95965.31;1026422;28;20396;-75
2023/08/19 00:30:06;;;;;;;4.97;4.28;;;;;;;18.11;100.00;95955.97;1026389;28;20031;-75
2023/08/19 00:30:37;;;;;;;8.32;4.35;;;;;;;18.08;100.00;95954.69;1030282;28;20034;-76
2023/08/19 00:31:08;;;;;;;7.00;4.22;;;;;;;18.08;100.00;95960.00;1030532;28;20022;-77
2023/08/19 00:31:39;;;;;;;7.80;4.28;;;;;;;18.04;100.00;95956.38;1034245;28;20022;-75
2023/08/19 00:32:10;;;;;;;6.07;4.68;;;;;;;18.05;100.00;95960.59;1030438;28;20600;-74
2023/08/19 00:32:40;;;;;;;5.18;4.45;;;;;;;18.09;100.00;95966.09;1026430;28;20148;-74
2023/08/19 00:33:11;;;;;;;4.82;4.32;;;;;;;18.03;100.00;95956.69;1030568;28;20022;-77
2023/08/19 00:33:41;;;;;;;6.30;4.30;;;;;;;18.06;100.00;95961.38;1030369;28;20030;-74
2023/08/19 00:34:12;;;;;;;5.00;3.97;;;;;;;18.05;100.00;95957.94;1018698;29;20055;-78
2023/08/19 00:34:43;;;;;;;10.25;4.25;;;;;;;18.03;100.00;95962.00;1022437;29;20028;-74
2023/08/19 00:35:14;;;;;;;4.35;3.85;;;;;;;18.02;100.00;95955.13;1026580;28;20069;-77
2023/08/19 00:35:44;;;;;;;6.60;4.13;;;;;;;18.03;100.00;95962.78;1030295;28;20578;-76
2023/08/19 00:36:18;;;;;;;8.00;4.20;;;;;;;18.02;100.00;95957.78;1030532;28;20073;-76
2023/08/19 00:36:48;;;;;;;4.57;4.18;;;;;;;18.01;100.00;95958.88;1031674;28;20538;-76
2023/08/19 00:37:18;;;;;;;6.38;4.05;;;;;;;17.96;100.00;95946.50;1034124;28;20022;-76
2023/08/19 00:37:49;;;;;;;5.18;4.32;;;;;;;18.02;100.00;95955.91;1030515;28;20022;-74
2023/08/19 00:38:19;;;;;;;5.00;4.45;;;;;;;18.03;100.00;95962.00;1030539;28;20019;-74
2023/08/19 00:38:51;;;;;;;5.63;4.05;;;;;;;18.00;100.00;95963.38;1030458;28;20026;-74
2023/08/19 00:39:22;;;;;;;8.43;4.35;;;;;;;17.90;100.00;95942.41;1034541;28;20583;-76
2023/08/19 00:39:52;;;;;;;6.45;4.15;;;;;;;18.00;100.00;95963.38;1030431;28;20116;-74
2023/08/19 00:40:23;;;;;;;6.03;4.40;;;;;;;17.98;100.00;95957.59;1019781;29;20024;-76
2023/08/19 00:40:53;;;;;;;5.57;4.55;;;;;;;17.91;100.00;95943.97;1022264;29;20168;-75
2023/08/19 00:41:23;;;;;;;5.78;4.53;;;;;;;17.96;100.00;95957.13;1018595;28;20031;-74
2023/08/19 00:41:54;;;;;;;6.43;4.88;;;;;;;17.96;100.00;95959.78;1022211;28;20030;-74
2023/08/19 00:42:24;;;;;;;7.55;4.47;;;;;;;17.92;100.00;95956.16;1030405;28;20041;-75
2023/08/19 00:42:55;;;;;;;7.63;4.75;;;;;;;17.92;100.00;95964.13;1018551;29;20035;-77
2023/08/19 00:43:25;;;;;;;7.80;4.22;;;;;;;17.89;100.00;95956.75;1018649;28;20079;-76
2023/08/19 00:43:56;;;;;;;10.02;4.30;;;;;;;17.90;100.00;95963.63;1019156;29;20426;-74
2023/08/19 00:44:27;;;;;;;7.63;4.82;;;;;;;17.77;100.00;95946.72;1018720;28;20086;-74
2023/08/19 00:44:57;;;;;;;9.75;4.10;;;;;;;17.84;100.00;95959.53;1026451;28;20588;-76
2023/08/19 00:45:28;;;;;;;10.68;4.38;;;;;;;17.83;100.00;95963.28;1028250;28;20030;-75
2023/08/19 00:45:58;;;;;;;7.85;4.95;;;;;;;17.79;100.00;95962.31;1034478;28;20029;-75
2023/08/19 00:46:29;;;;;;;4.65;4.20;;;;;;;17.74;100.00;95947.28;1030218;28;20667;-75
2023/08/19 00:47:03;;;;;;;8.27;4.28;;;;;;;17.83;100.00;95963.28;1025594;28;20031;-79
2023/08/19 00:47:33;;;;;;;6.90;4.75;;;;;;;17.76;100.00;95953.09;1022438;29;20121;-75
2023/08/19 00:48:04;;;;;;;6.45;4.80;;;;;;;17.82;100.00;95967.03;1026245;28;20480;-76
2023/08/19 00:48:35;;;;;;;5.15;4.25;;;;;;;17.79;100.00;95957.78;1026311;28;20702;-74
2023/08/19 00:49:05;;;;;;;4.93;4.43;;;;;;;17.82;100.00;95962.50;1025789;28;20061;-75
2023/08/19 00:49:36;;;;;;;7.85;4.38;;;;;;;17.82;100.00;95961.72;1026443;28;20031;-76
2023/08/19 00:50:08;;;;;;;6.70;4.63;;;;;;;17.80;100.00;95963.88;1026151;28;20035;-75
2023/08/19 00:50:39;;;;;;;5.28;4.63;;;;;;;17.83;100.00;95968.59;1026299;28;20058;-76
2023/08/19 00:51:09;;;;;;;5.18;4.68;;;;;;;17.77;100.00;95953.88;1030443;28;20855;-77
2023/08/19 00:51:40;;;;;;;7.22;4.45;;;;;;;17.81;100.00;95962.81;1026666;28;20497;-77
2023/08/19 00:52:10;;;;;;;6.18;4.30;;;;;;;17.83;100.00;95964.06;1022177;28;20031;-73
2023/08/19 00:52:41;;;;;;;5.93;4.35;;;;;;;17.78;100.00;95958.09;1026363;28;20085;-74
2023/08/19 00:53:12;;;;;;;5.60;4.55;;;;;;;17.80;100.00;95958.56;1026496;28;20496;-73
2023/08/19 00:53:43;;;;;;;6.63;4.40;;;;;;;17.72;100.00;95949.44;1026361;28;20138;-75
2023/08/19 00:54:13;;;;;;;6.35;4.63;;;;;;;17.70;100.00;95942.88;1022297;28;20027;-73
2023/08/19 00:54:44;;;;;;;4.80;4.30;;;;;;;17.73;100.00;95956.31;1026475;28;20031;-74
2023/08/19 00:55:15;;;;;;;9.15;4.55;;;;;;;17.76;100.00;95958.41;1030516;28;20550;-75
2023/08/19 00:55:45;;;;;;;6.72;4.88;;;;;;;17.70;100.00;95943.66;1030425;28;20476;-75
2023/08/19 00:56:16;;;;;;;6.53;4.45;;;;;;;17.76;100.00;95957.59;1026224;28;20026;-77
2023/08/19 00:56:46;;;;;;;9.25;5.47;;;;;;;17.71;100.00;95955.06;1026594;28;20027;-73
2023/08/19 00:57:17;;;;;;;5.72;4.38;;;;;;;17.74;100.00;95952.59;1026487;28;20656;-76
2023/08/19 00:57:47;;;;;;;5.43;4.47;;;;;;;17.53;100.00;95923.09;1022665;28;20035;-76
2023/08/19 00:58:18;;;;;;;6.70;4.65;;;;;;;17.66;100.00;95943.47;1026429;28;20034;-75
2023/08/19 00:58:48;;;;;;;5.43;4.68;;;;;;;17.75;100.00;95961.34;1030564;28;20495;-74
2023/08/19 00:59:19;;;;;;;6.82;4.60;;;;;;;17.71;100.00;95949.75;1030659;28;20520;-73
2023/08/19 00:59:49;;;;;;;5.22;4.30;;;;;;;17.73;100.00;95952.88;1022506;29;20873;-75
2023/08/19 01:00:20;;;;;;;6.63;4.88;;;;;;;17.73;100.00;95952.88;1021987;28;20033;-79
2023/08/19 01:00:51;;;;;;;5.70;5.15;;;;;;;17.73;100.00;95952.88;1026132;28;20138;-75
2023/08/19 01:01:21;;;;;;;5.20;4.63;;;;;;;17.74;100.00;95954.44;1019589;28;20110;-78
2023/08/19 01:01:52;;;;;;;8.07;4.50;;;;;;;17.68;100.00;95945.84;1026458;28;20071;-76
2023/08/19 01:02:22;;;;;;;5.78;4.68;;;;;;;17.66;100.00;95953.31;1025489;28;20031;-74
2023/08/19 01:02:53;;;;;;;16.13;4.88;;;;;;;17.71;100.00;95955.06;1025935;28;20034;-75
2023/08/19 01:03:23;;;;;;;10.15;5.13;;;;;;;17.66;100.00;95948.00;1035237;28;20030;-75
2023/08/19 01:03:54;;;;;;;7.05;4.72;;;;;;;17.71;100.00;95955.06;1035487;28;20391;-76
2023/08/19 01:04:24;;;;;;;6.47;4.68;;;;;;;17.66;100.00;95948.78;1035284;28;20028;-75
2023/08/19 01:04:55;;;;;;;5.75;4.93;;;;;;;17.71;100.00;95958.50;1027041;28;20635;-74
2023/08/19 01:05:30;;;;;;;6.63;5.15;;;;;;;17.73;100.00;95963.50;1022986;29;20453;-74
2023/08/19 01:06:27;;;;;;;5.28;4.78;;;;;;;17.73;100.00;95963.50;1019053;29;20454;-76
2023/08/19 01:07:08;;;;;;;5.43;4.93;;;;;;;17.72;100.00;95965.38;1023286;28;20031;-75
2023/08/19 01:07:44;;;;;;;6.53;5.32;;;;;;;17.66;100.00;95954.09;1018313;29;20499;-76
2023/08/19 01:08:18;;;;;;;9.07;5.30;;;;;;;17.71;100.00;95955.06;1027197;28;20069;-75
2023/08/19 01:09:11;;;;;;;6.63;5.40;;;;;;;17.73;100.00;95958.19;1027113;28;20023;-76
2023/08/19 01:09:47;;;;;;;6.47;5.45;;;;;;;17.72;100.00;95962.72;1028352;28;20029;-73
2023/08/19 01:10:44;;;;;;;7.05;4.72;;;;;;;17.73;100.00;95963.50;1027124;28;20027;-74
2023/08/19 01:11:30;;;;;;;5.88;5.00;;;;;;;17.71;100.00;95955.06;1026026;28;20524;-73
2023/08/19 01:12:12;;;;;;;6.10;4.93;;;;;;;17.70;100.00;95958.78;1035695;28;20022;-74
2023/08/19 01:12:46;;;;;;;7.93;4.97;;;;;;;17.62;100.00;95942.50;1027007;28;20111;-74
2023/08/19 01:13:18;;;;;;;7.63;4.75;;;;;;;17.64;100.00;95947.53;1022955;28;20015;-77
2023/08/19 01:13:56;;;;;;;8.00;5.25;;;;;;;17.60;100.00;95944.66;1031012;28;20169;-75
2023/08/19 01:14:39;;;;;;;5.43;4.63;;;;;;;17.60;100.00;95949.19;1031107;28;20015;-75
2023/08/19 01:15:41;;;;;;;6.05;4.97;;;;;;;17.66;100.00;95958.63;1018991;29;20210;-73
2023/08/19 01:16:17;;;;;;;8.02;5.40;;;;;;;17.61;100.00;95951.56;1028666;28;20042;-76
2023/08/19 01:16:49;;;;;;;9.95;5.03;;;;;;;17.64;100.00;95950.19;1030901;28;20507;-75
2023/08/19 01:17:21;;;;;;;7.93;5.60;;;;;;;17.56;100.00;95942.94;1023040;29;20061;-75
2023/08/19 01:17:52;;;;;;;6.57;5.22;;;;;;;17.59;100.00;95948.41;1031049;28;20022;-75
2023/08/19 01:18:23;;;;;;;7.55;4.70;;;;;;;17.61;100.00;95956.09;1033773;28;20021;-75
2023/08/19 01:18:54;;;;;;;6.13;5.00;;;;;;;17.58;100.00;95946.84;1031160;28;20026;-75
2023/08/19 01:19:29;;;;;;;7.57;5.30;;;;;;;17.55;100.00;95944.03;1026949;28;20404;-74
2023/08/19 01:19:59;;;;;;;6.75;5.20;;;;;;;17.52;100.00;95932.13;1030908;28;20015;-74
2023/08/19 01:20:31;;;;;;;8.65;5.35;;;;;;;17.57;100.00;95947.16;1026530;28;20034;-77
2023/08/19 01:21:03;;;;;;;5.75;5.18;;;;;;;17.51;100.00;95948.38;1026959;28;20014;-73
2023/08/19 01:21:34;;;;;;;7.45;5.15;;;;;;;17.50;100.00;95941.47;1022748;29;20027;-74
2023/08/19 01:22:05;;;;;;;8.07;4.80;;;;;;;17.45;100.00;95934.44;1026922;28;20035;-76
2023/08/19 01:22:43;;;;;;;7.97;5.78;;;;;;;17.49;100.00;95943.34;1026962;28;20118;-75
2023/08/19 01:23:32;;;;;;;5.30;4.80;;;;;;;17.50;100.00;95944.91;1024274;28;20031;-77
2023/08/19 01:24:04;;;;;;;7.00;5.35;;;;;;;17.49;100.00;95943.34;1027031;28;20473;-76
2023/08/19 01:24:37;;;;;;;6.60;4.78;;;;;;;17.40;100.00;95937.19;1030767;28;20125;-75
2023/08/19 01:25:08;;;;;;;7.80;5.30;;;;;;;17.41;100.00;95936.13;1025950;28;20022;-74
2023/08/19 01:25:41;;;;;;;6.93;4.72;;;;;;;17.43;100.00;95941.91;1029115;28;20030;-75
2023/08/19 01:26:11;;;;;;;12.48;5.45;;;;;;;17.42;100.00;95940.34;1039156;28;20065;-75
2023/08/19 01:26:42;;;;;;;7.93;5.18;;;;;;;17.42;100.00;95943.00;1021355;28;20031;-74
2023/08/19 01:27:23;;;;;;;7.10;5.60;;;;;;;17.39;100.00;95938.28;1023002;29;20031;-77
2023/08/19 01:27:53;;;;;;;9.30;5.40;;;;;;;17.38;100.00;95944.69;1022975;28;20027;-74
2023/08/19 01:28:24;;;;;;;9.77;5.53;;;;;;;17.33;100.00;95936.84;1025807;28;20042;-76
2023/08/19 01:28:54;;;;;;;8.00;5.30;;;;;;;17.36;100.00;95946.84;1031073;28;20045;-77
2023/08/19 01:29:25;;;;;;;7.90;5.18;;;;;;;17.33;100.00;95942.91;1031183;28;20061;-78
2023/08/19 01:29:58;;;;;;;6.22;5.20;;;;;;;17.32;100.00;95941.34;1039105;28;20075;-77
2023/08/19 01:30:31;;;;;;;7.13;5.40;;;;;;;17.25;100.00;95934.91;1034542;28;20038;-76
2023/08/19 01:31:01;;;;;;;6.22;5.47;;;;;;;17.30;100.00;95943.50;1034989;28;20022;-76
2023/08/19 01:31:31;;;;;;;6.35;5.13;;;;;;;17.28;100.00;95940.41;1035166;28;20030;-75
2023/08/19 01:32:03;;;;;;;7.07;5.28;;;;;;;17.27;100.00;95941.50;1035508;28;20029;-74
2023/08/19 01:32:34;;;;;;;8.18;5.35;;;;;;;17.19;100.00;95932.34;1035054;28;20244;-77
2023/08/19 01:33:04;;;;;;;7.57;5.72;;;;;;;17.23;100.00;95932.53;1026696;28;20034;-76
2023/08/19 01:33:34;;;;;;;6.60;4.95;;;;;;;17.23;100.00;95934.41;1017105;29;20587;-77
2023/08/19 01:34:05;;;;;;;6.40;4.90;;;;;;;17.25;100.00;95937.56;1018961;29;20024;-75
2023/08/19 01:34:35;;;;;;;11.10;6.95;;;;;;;17.18;100.00;95933.44;1023018;29;20039;-73
2023/08/19 01:35:06;;;;;;;7.35;5.00;;;;;;;17.22;100.00;95933.63;1023401;28;20027;-73
2023/08/19 01:35:38;;;;;;;6.63;5.28;;;;;;;17.23;100.00;95940.50;1019035;29;20032;-74
2023/08/19 01:36:28;;;;;;;6.55;5.13;;;;;;;17.22;100.00;95938.94;1030766;28;20038;-76
2023/08/19 01:37:01;;;;;;;10.18;5.75;;;;;;;17.21;100.00;95932.06;1034464;28;20026;-74
2023/08/19 01:37:59;;;;;;;6.75;5.75;;;;;;;17.18;100.00;95930.78;1033665;28;20025;-75
2023/08/19 01:38:44;;;;;;;10.57;5.60;;;;;;;17.18;100.00;95933.44;1026707;28;20027;-73
2023/08/19 01:39:14;;;;;;;7.93;5.13;;;;;;;17.17;100.00;95936.41;1027077;28;20118;-73
2023/08/19 01:39:45;;;;;;;7.88;5.10;;;;;;;17.08;100.00;95927.59;1026852;28;20022;-75
2023/08/19 01:40:15;;;;;;;6.78;5.15;;;;;;;17.09;100.00;95924.63;1022842;29;20027;-75
2023/08/19 01:40:46;;;;;;;7.03;5.20;;;;;;;17.07;100.00;95926.81;1018222;29;20034;-76
2023/08/19 01:41:16;;;;;;;10.15;6.32;;;;;;;17.15;100.00;95938.56;1019202;29;20515;-76
2023/08/19 01:41:47;;;;;;;9.00;5.05;;;;;;;17.11;100.00;95937.59;1022763;29;20031;-76
2023/08/19 01:42:17;;;;;;;6.40;5.20;;;;;;;17.08;100.00;95931.03;1026795;28;20022;-75
2023/08/19 01:42:48;;;;;;;6.60;5.35;;;;;;;17.13;100.00;95935.41;1019009;29;20078;-74
2023/08/19 01:43:18;;;;;;;7.63;5.13;;;;;;;17.07;100.00;95926.00;1023128;29;20023;-74
2023/08/19 01:43:49;;;;;;;8.15;5.30;;;;;;;17.13;100.00;95936.19;1032438;28;20026;-75
2023/08/19 01:44:19;;;;;;;5.80;5.18;;;;;;;17.12;100.00;95934.63;1026798;28;20046;-74
2023/08/19 01:44:50;;;;;;;7.47;5.13;;;;;;;17.12;100.00;95936.50;1014997;29;20027;-75
2023/08/19 01:45:21;;;;;;;6.38;5.68;;;;;;;17.11;100.00;95934.94;1027773;28;20023;-75
2023/08/19 01:45:51;;;;;;;7.28;5.45;;;;;;;17.12;100.00;95934.63;1026977;28;20428;-74
2023/08/19 01:46:22;;;;;;;7.63;5.90;;;;;;;17.05;100.00;95923.66;1022612;29;20042;-74
2023/08/19 01:46:53;;;;;;;7.57;5.13;;;;;;;17.11;100.00;95938.38;1022984;29;20035;-75
2023/08/19 01:47:23;;;;;;;8.90;5.32;;;;;;;17.07;100.00;95934.78;1026409;28;20114;-76
2023/08/19 01:47:54;;;;;;;7.00;5.82;;;;;;;17.11;100.00;95937.59;1026967;28;20035;-74
2023/08/19 01:48:24;;;;;;;7.10;5.22;;;;;;;17.13;100.00;95944.16;1022837;29;20500;-75
2023/08/19 01:48:55;;;;;;;6.95;5.45;;;;;;;17.07;100.00;95928.66;1026721;28;20027;-76
2023/08/19 01:49:25;;;;;;;6.00;5.22;;;;;;;17.12;100.00;95934.63;1023019;29;20413;-76
2023/08/19 01:49:57;;;;;;;7.72;5.22;;;;;;;17.15;100.00;95944.66;1026991;28;20022;-76
2023/08/19 01:50:27;;;;;;;7.47;5.65;;;;;;;17.11;100.00;95938.38;1026188;28;20035;-74
2023/08/19 01:50:58;;;;;;;9.82;6.50;;;;;;;17.17;100.00;95947.81;1023161;28;20031;-74
2023/08/19 01:51:31;;;;;;;10.40;5.05;;;;;;;17.13;100.00;95938.06;1023387;28;20027;-74
2023/08/19 01:52:01;;;;;;;8.88;5.43;;;;;;;17.11;100.00;95934.94;1026940;28;20062;-74
2023/08/19 01:52:32;;;;;;;7.78;5.45;;;;;;;17.15;100.00;95943.88;1022904;29;20535;-74
2023/08/19 01:53:03;;;;;;;16.55;6.00;;;;;;;17.10;100.00;95942.13;1022973;28;20397;-75
2023/08/19 01:53:33;;;;;;;22.05;7.97;;;;;;;17.15;100.00;95955.25;1027044;28;20061;-76
2023/08/19 01:54:04;;;;;;;8.95;5.32;;;;;;;17.14;100.00;95951.03;1026924;28;20090;-75
2023/08/19 01:54:34;;;;;;;11.20;5.75;;;;;;;17.13;100.00;95952.09;1031166;28;20038;-76
2023/08/19 01:55:05;;;;;;;11.65;5.40;;;;;;;17.10;100.00;95952.72;1030864;28;20100;-75
2023/08/19 01:55:36;;;;;;;7.95;5.68;;;;;;;17.08;100.00;95948.81;1030877;28;20050;-74
2023/08/19 01:56:06;;;;;;;8.95;5.80;;;;;;;17.06;100.00;95946.44;1032083;28;20113;-74
2023/08/19 01:56:36;;;;;;;10.50;5.78;;;;;;;17.05;100.00;95947.53;1035087;28;20041;-74
2023/08/19 01:57:07;;;;;;;8.63;5.32;;;;;;;17.06;100.00;95950.97;1030648;28;20026;-74
2023/08/19 01:57:37;;;;;;;11.45;6.53;;;;;;;17.05;100.00;95946.75;1030801;28;20065;-73
2023/08/19 01:58:08;;;;;;;9.75;5.90;;;;;;;17.04;100.00;95947.84;1030863;28;20092;-75
2023/08/19 01:58:38;;;;;;;8.20;5.50;;;;;;;16.95;100.00;95940.56;1031104;28;20034;-75
2023/08/19 01:59:09;;;;;;;6.38;5.15;;;;;;;17.01;100.00;95945.78;1030647;28;20037;-75
2023/08/19 01:59:39;;;;;;;6.88;5.20;;;;;;;17.01;100.00;95949.22;1026965;28;20046;-76
2023/08/19 02:00:10;;;;;;;6.55;5.60;;;;;;;17.01;100.00;95949.22;1026948;28;20715;-74
2023/08/19 02:00:41;;;;;;;8.65;5.70;;;;;;;17.01;100.00;95943.91;1027202;28;20031;-75
2023/08/19 02:01:12;;;;;;;10.68;5.63;;;;;;;17.01;100.00;95937.81;1030911;28;20030;-77
2023/08/19 02:01:42;;;;;;;6.82;5.72;;;;;;;17.02;100.00;95948.13;1026810;28;20018;-74
2023/08/19 02:02:13;;;;;;;9.05;5.80;;;;;;;16.96;100.00;95942.13;1026989;28;20742;-75
2023/08/19 02:02:43;;;;;;;7.35;5.38;;;;;;;16.96;100.00;95942.13;1026718;28;20034;-75
2023/08/19 02:03:14;;;;;;;8.90;5.80;;;;;;;17.02;100.00;95948.13;1026893;28;20035;-74
2023/08/19 02:03:44;;;;;;;10.30;5.70;;;;;;;17.03;100.00;95948.91;1030754;28;20030;-76
2023/08/19 02:04:14;;;;;;;8.68;5.70;;;;;;;17.02;100.00;95956.06;1030835;28;20491;-74
2023/08/19 02:04:45;;;;;;;8.05;5.97;;;;;;;16.96;100.00;95938.69;1026752;28;20035;-75
2023/08/19 02:05:15;;;;;;;9.18;5.97;;;;;;;16.94;100.00;95935.59;1026878;28;20034;-76
2023/08/19 02:05:46;;;;;;;8.35;5.22;;;;;;;16.99;100.00;95947.94;1026792;28;20031;-74
2023/08/19 02:06:16;;;;;;;8.85;5.80;;;;;;;16.99;100.00;95946.06;1026830;28;20038;-76
2023/08/19 02:06:47;;;;;;;6.82;5.63;;;;;;;16.98;100.00;95955.09;1026806;28;20033;-74
2023/08/19 02:07:17;;;;;;;7.03;5.68;;;;;;;16.96;100.00;95950.09;1022864;28;20393;-75
2023/08/19 02:07:48;;;;;;;9.15;5.82;;;;;;;16.91;100.00;95939.59;1026802;28;20026;-73
2023/08/19 02:08:18;;;;;;;6.43;5.25;;;;;;;16.96;100.00;95944.00;1026935;28;20027;-74
2023/08/19 02:08:49;;;;;;;7.15;5.25;;;;;;;16.86;100.00;95934.41;1022947;28;20086;-73
2023/08/19 02:09:19;;;;;;;8.68;5.57;;;;;;;16.96;100.00;95957.25;1026721;28;20042;-77
2023/08/19 02:09:50;;;;;;;7.32;5.60;;;;;;;16.94;100.00;95951.50;1029274;28;20030;-75
2023/08/19 02:10:20;;;;;;;7.13;5.43;;;;;;;16.93;100.00;95947.25;1026395;28;20058;-75
2023/08/19 02:10:51;;;;;;;7.32;5.65;;;;;;;16.90;100.00;95945.19;1030659;28;20041;-75
2023/08/19 02:11:21;;;;;;;7.80;5.63;;;;;;;16.89;100.00;95947.06;1030668;28;20085;-74
2023/08/19 02:11:54;;;;;;;8.70;5.78;;;;;;;16.90;100.00;95953.13;1026933;28;20511;-77
2023/08/19 02:12:25;;;;;;;8.93;5.47;;;;;;;16.86;100.00;95946.88;1027181;28;20058;-74
2023/08/19 02:12:55;;;;;;;7.55;5.63;;;;;;;16.89;100.00;95951.59;1025103;28;20546;-74
2023/08/19 02:13:26;;;;;;;6.75;5.70;;;;;;;16.84;100.00;95944.53;1023232;28;20027;-75
2023/08/19 02:13:56;;;;;;;7.05;5.97;;;;;;;16.84;100.00;95947.19;1026360;28;20031;-75
2023/08/19 02:14:27;;;;;;;7.45;5.60;;;;;;;16.78;100.00;95934.34;1026493;28;20038;-75
2023/08/19 02:14:57;;;;;;;10.07;5.57;;;;;;;16.83;100.00;95942.16;1022721;28;20792;-75
2023/08/19 02:15:28;;;;;;;6.28;5.45;;;;;;;16.83;100.00;95956.19;1022741;29;20349;-75
2023/08/19 02:15:58;;;;;;;8.27;5.85;;;;;;;16.81;100.00;95954.94;1022868;28;20070;-75
2023/08/19 02:16:29;;;;;;;7.45;5.47;;;;;;;16.80;100.00;95953.34;1026754;28;20039;-74
2023/08/19 02:16:59;;;;;;;6.55;5.57;;;;;;;16.81;100.00;95955.72;1035118;28;20393;-75
2023/08/19 02:17:29;;;;;;;7.45;5.78;;;;;;;16.75;100.00;95940.22;1034890;28;20076;-76
2023/08/19 02:18:00;;;;;;;9.20;5.97;;;;;;;16.79;100.00;95946.50;1034770;28;20026;-76
2023/08/19 02:18:30;;;;;;;7.53;5.32;;;;;;;16.80;100.00;95950.69;1030820;28;20034;-77
2023/08/19 02:19:01;;;;;;;11.77;5.43;;;;;;;16.71;100.00;95940.00;1026757;28;20034;-75
2023/08/19 02:19:31;;;;;;;8.73;5.95;;;;;;;16.76;100.00;95947.09;1027065;28;20488;-74
2023/08/19 02:20:03;;;;;;;10.38;5.53;;;;;;;16.73;100.00;95938.63;1026702;28;20038;-76
2023/08/19 02:20:33;;;;;;;9.70;5.45;;;;;;;16.80;100.00;95956.00;1026168;28;20035;-74
2023/08/19 02:21:04;;;;;;;8.02;5.53;;;;;;;16.79;100.00;95949.16;1026736;28;20637;-75
2023/08/19 02:21:37;;;;;;;7.95;5.60;;;;;;;16.79;100.00;95954.44;1023045;28;20046;-76
2023/08/19 02:22:07;;;;;;;7.22;5.63;;;;;;;16.78;100.00;95951.00;1031505;28;20062;-74
2023/08/19 02:22:38;;;;;;;6.85;5.80;;;;;;;16.60;100.00;95923.53;1035334;28;20033;-74
2023/08/19 02:23:08;;;;;;;7.28;6.28;;;;;;;16.73;100.00;95941.28;1029739;28;20119;-76
2023/08/19 02:23:39;;;;;;;6.65;5.50;;;;;;;16.78;100.00;95952.88;1027079;28;20043;-75
2023/08/19 02:24:09;;;;;;;7.00;5.63;;;;;;;16.72;100.00;95950.28;1019315;29;20040;-74
2023/08/19 02:24:40;;;;;;;6.93;5.70;;;;;;;16.73;100.00;95946.59;1027344;28;20069;-73
2023/08/19 02:25:10;;;;;;;9.38;5.93;;;;;;;16.71;100.00;95940.78;1023273;28;20034;-78
2023/08/19 02:25:41;;;;;;;9.32;5.60;;;;;;;16.79;100.00;95952.56;1027035;28;20063;-75
2023/08/19 02:26:11;;;;;;;6.25;5.43;;;;;;;16.78;100.00;95955.53;1031002;28;20034;-76
2023/08/19 02:26:42;;;;;;;8.20;5.70;;;;;;;16.78;100.00;95950.22;1025779;28;20046;-75
2023/08/19 02:27:12;;;;;;;7.82;5.82;;;;;;;16.79;100.00;95954.44;1023588;28;20054;-75
2023/08/19 02:27:43;;;;;;;8.13;5.72;;;;;;;16.77;100.00;95953.94;1023328;29;20089;-74